Terminal Aerodrome Forecast
Issued by NWS

Home | Current Version | Previous Version | Graphics & Text | Print | Product List | Glossary On
Versions: 1 2 3 4 5 6 7 8 9 10 11 12 13 14 15 16 17
000
FTUS45 KGGW 211403 AAA
TAFOLF
TAF AMD
KOLF 211403Z 2114/2212 VRB05KT P6SM SCT002 SCT200
      TEMPO 2114/2116 1/2SM FZFG
     FM211600 25006KT P6SM BKN100
     FM212100 29006KT P6SM VCSH OVC050
     FM220000 33007KT P6SM -RA OVC035
     FM220300 34005KT 2SM -RASNPL SCT003 OVC015
     FM220400 01005KT 2SM -SN SCT003 OVC009=

USA.gov is the U.S. government's official web portal to all federal, state and local government web resources and services.